Time;durP1;ratioP1;P1;durP2;ratioP2;P2;SDS_P1;SDS_P2;PMS_P1;PMS_P2;Temp;Humidity;BMP_temperature;BMP_pressure;BME280_temperature;BME280_humidity;BME280_pressure;Samples;Min_cycle;Max_cycle;Signal;HPM_P1;HPM_P2
2023/05/02 00:00:36;;;;;;;6.38;4.78;;;12.60;99.90;;;;;;5038398;28;20086;-78
2023/05/02 00:03:04;;;;;;;5.82;4.82;;;12.60;99.90;;;;;;5038686;28;20017;-77
2023/05/02 00:05:30;;;;;;;7.57;4.45;;;12.60;99.90;;;;;;5038678;28;20057;-76
2023/05/02 00:07:56;;;;;;;6.07;4.65;;;12.50;99.90;;;;;;5038248;28;20355;-77
2023/05/02 00:10:22;;;;;;;7.25;4.32;;;12.50;99.90;;;;;;5038566;28;20037;-77
2023/05/02 00:12:47;;;;;;;5.03;3.97;;;12.50;99.90;;;;;;5055743;28;20083;-77
2023/05/02 00:15:13;;;;;;;6.13;4.25;;;12.50;99.90;;;;;;5055887;28;20025;-77
2023/05/02 00:17:40;;;;;;;7.28;4.30;;;12.40;99.90;;;;;;5054975;28;20040;-77
2023/05/02 00:20:10;;;;;;;5.45;4.32;;;12.50;99.90;;;;;;5055673;28;20025;-77
2023/05/02 00:22:36;;;;;;;5.97;4.40;;;12.50;99.90;;;;;;5037581;28;20056;-78
2023/05/02 00:25:02;;;;;;;6.40;4.63;;;12.40;99.90;;;;;;5055881;28;20056;-77
2023/05/02 00:27:29;;;;;;;6.18;4.40;;;12.30;99.90;;;;;;5055289;28;20454;-77
2023/05/02 00:29:54;;;;;;;4.70;3.90;;;12.30;99.90;;;;;;5055297;28;20037;-77
2023/05/02 00:32:20;;;;;;;6.20;4.20;;;12.30;99.90;;;;;;5055595;28;20032;-78
2023/05/02 00:34:45;;;;;;;5.07;4.00;;;12.30;99.90;;;;;;5037306;28;20025;-78
2023/05/02 00:37:12;;;;;;;7.30;4.07;;;12.20;99.90;;;;;;5055891;28;20496;-77
2023/05/02 00:39:37;;;;;;;4.88;3.97;;;12.20;99.90;;;;;;5037314;28;20036;-78
2023/05/02 00:42:03;;;;;;;6.63;4.00;;;12.20;99.90;;;;;;5037871;28;20021;-77
2023/05/02 00:44:29;;;;;;;5.60;4.20;;;12.20;99.90;;;;;;5037832;28;20024;-76
2023/05/02 00:46:55;;;;;;;7.10;5.15;;;12.20;99.90;;;;;;5037305;28;20562;-77
2023/05/02 00:49:21;;;;;;;8.82;4.57;;;12.20;99.90;;;;;;5037319;28;20382;-77
2023/05/02 00:51:47;;;;;;;5.72;4.18;;;12.10;99.90;;;;;;5054798;28;20455;-77
2023/05/02 00:54:13;;;;;;;4.72;3.95;;;12.10;99.90;;;;;;5055167;28;20049;-77
2023/05/02 00:56:38;;;;;;;4.88;4.15;;;12.10;99.90;;;;;;5036635;28;20029;-78
2023/05/02 00:59:06;;;;;;;4.82;3.88;;;12.10;99.90;;;;;;5055289;28;20025;-77
2023/05/02 01:01:43;;;;;;;6.03;4.20;;;12.10;99.90;;;;;;5037726;28;20040;-78
2023/05/02 01:04:39;;;;;;;6.15;4.20;;;12.00;99.90;;;;;;5055304;28;20029;-77
2023/05/02 01:07:27;;;;;;;5.90;3.70;;;12.00;99.90;;;;;;5055347;28;20086;-77
2023/05/02 01:10:17;;;;;;;7.22;4.30;;;11.90;99.90;;;;;;5054656;28;20412;-77
2023/05/02 01:13:06;;;;;;;6.70;4.18;;;11.90;99.90;;;;;;5054859;28;20025;-77
2023/05/02 01:15:34;;;;;;;5.07;3.90;;;11.90;99.90;;;;;;5037401;28;20028;-77
2023/05/02 01:18:01;;;;;;;7.18;4.22;;;11.80;99.90;;;;;;5036321;28;20024;-77
2023/05/02 01:20:30;;;;;;;5.32;4.28;;;11.80;99.90;;;;;;5054437;28;20048;-77
2023/05/02 01:23:03;;;;;;;4.78;3.63;;;11.70;99.90;;;;;;5036800;28;20029;-77
2023/05/02 01:25:32;;;;;;;5.45;4.10;;;11.70;99.90;;;;;;5054963;28;20108;-77
2023/05/02 01:28:00;;;;;;;5.88;4.32;;;11.70;99.90;;;;;;5054199;28;20578;-77
2023/05/02 01:30:29;;;;;;;6.10;4.07;;;11.70;99.90;;;;;;5037073;28;20555;-77
2023/05/02 01:32:57;;;;;;;6.47;4.32;;;11.60;99.90;;;;;;5036643;28;20528;-77
2023/05/02 01:35:24;;;;;;;5.68;4.13;;;11.70;99.90;;;;;;5054650;28;20017;-77
2023/05/02 01:37:52;;;;;;;5.97;4.03;;;11.70;99.90;;;;;;5036408;28;20063;-77
2023/05/02 01:40:21;;;;;;;5.18;3.83;;;11.70;99.90;;;;;;5036850;28;20044;-77
2023/05/02 01:42:49;;;;;;;5.55;4.10;;;11.70;99.90;;;;;;5036327;28;20086;-77
2023/05/02 01:45:15;;;;;;;5.70;4.03;;;11.70;99.90;;;;;;5036655;28;20021;-77
2023/05/02 01:47:43;;;;;;;4.55;3.85;;;11.70;99.90;;;;;;5036264;28;20059;-78
2023/05/02 01:50:12;;;;;;;8.75;4.57;;;11.70;99.90;;;;;;5054073;28;20063;-77
2023/05/02 01:52:39;;;;;;;11.27;4.43;;;11.70;99.90;;;;;;5036117;28;20102;-77
2023/05/02 01:55:08;;;;;;;5.82;4.45;;;11.60;99.90;;;;;;5036298;28;20025;-77
2023/05/02 01:57:37;;;;;;;6.03;4.32;;;11.70;99.90;;;;;;5053933;28;20025;-77
2023/05/02 02:00:05;;;;;;;5.90;4.60;;;11.70;99.90;;;;;;5035956;28;20083;-77
2023/05/02 02:02:33;;;;;;;5.50;4.22;;;11.60;99.90;;;;;;5036475;28;20040;-77
2023/05/02 02:05:01;;;;;;;6.32;4.45;;;11.60;99.90;;;;;;5035869;28;20021;-77
2023/05/02 02:07:27;;;;;;;6.35;4.85;;;11.60;99.90;;;;;;5034970;28;20032;-77
2023/05/02 02:09:53;;;;;;;5.88;4.40;;;11.50;99.90;;;;;;5035424;28;20029;-77
2023/05/02 02:12:30;;;;;;;7.28;4.80;;;11.50;99.90;;;;;;5036029;28;20124;-77
2023/05/02 02:15:03;;;;;;;9.13;4.78;;;11.50;99.90;;;;;;5053384;28;20082;-77
2023/05/02 02:17:40;;;;;;;6.90;4.45;;;11.40;99.90;;;;;;5035820;28;20064;-76
2023/05/02 02:20:08;;;;;;;6.97;4.80;;;11.40;99.90;;;;;;5035666;28;20547;-77
2023/05/02 02:22:38;;;;;;;8.18;4.72;;;11.40;99.90;;;;;;5053631;28;20028;-77
2023/05/02 02:25:10;;;;;;;7.63;4.88;;;11.40;99.90;;;;;;5035472;28;20032;-77
2023/05/02 02:27:39;;;;;;;;;;;11.40;99.90;;;;;;5036407;28;20040;-78
2023/05/02 02:30:05;;;;;;;8.20;4.57;;;11.40;99.90;;;;;;5035684;28;19917;-77
2023/05/02 02:32:31;;;;;;;7.28;4.68;;;11.40;99.90;;;;;;5035846;28;20032;-77
2023/05/02 02:34:58;;;;;;;7.63;5.13;;;11.40;99.90;;;;;;5053033;28;20021;-78
2023/05/02 02:37:47;;;;;;;7.00;5.20;;;11.40;99.90;;;;;;5035711;28;20040;-77
2023/05/02 02:40:28;;;;;;;7.90;5.28;;;11.40;99.90;;;;;;5036069;28;20029;-77
2023/05/02 02:43:03;;;;;;;9.80;5.15;;;11.40;99.90;;;;;;5053482;28;20354;-77
2023/05/02 02:45:45;;;;;;;9.13;5.60;;;11.40;99.90;;;;;;5036143;28;20025;-77
2023/05/02 02:48:33;;;;;;;6.95;5.28;;;11.30;99.90;;;;;;5035939;28;20028;-77
2023/05/02 02:51:08;;;;;;;7.88;5.20;;;11.40;99.90;;;;;;5052977;28;20029;-77
2023/05/02 02:53:42;;;;;;;6.90;5.32;;;11.30;99.90;;;;;;5053798;28;20075;-77
2023/05/02 02:56:15;;;;;;;8.70;5.25;;;11.30;99.90;;;;;;5035531;28;20036;-77
2023/05/02 02:59:03;;;;;;;7.32;4.97;;;11.30;99.90;;;;;;5035708;28;20062;-77
2023/05/02 03:01:31;;;;;;;7.50;5.18;;;11.40;99.90;;;;;;5053464;28;20026;-77
2023/05/02 03:03:57;;;;;;;7.13;5.28;;;11.30;99.90;;;;;;5035225;28;20158;-77
2023/05/02 03:06:23;;;;;;;9.55;5.32;;;11.30;99.90;;;;;;5035584;28;20060;-77
2023/05/02 03:08:49;;;;;;;6.93;5.13;;;11.30;99.90;;;;;;5035105;28;20025;-77
2023/05/02 03:11:15;;;;;;;8.02;5.68;;;11.20;99.90;;;;;;5035689;28;20386;-77
2023/05/02 03:13:41;;;;;;;6.82;4.72;;;11.20;99.90;;;;;;5053436;28;20111;-77
2023/05/02 03:16:31;;;;;;;6.38;5.20;;;11.20;99.90;;;;;;5035314;28;20075;-77
2023/05/02 03:18:57;;;;;;;7.03;5.70;;;11.20;99.90;;;;;;5035403;28;20028;-77
2023/05/02 03:21:23;;;;;;;7.13;5.18;;;11.20;99.90;;;;;;5038749;28;20025;-77
2023/05/02 03:23:48;;;;;;;7.40;5.10;;;11.20;99.90;;;;;;5038379;28;20039;-78
2023/05/02 03:26:15;;;;;;;8.23;5.57;;;11.20;99.90;;;;;;5039097;28;20516;-77
2023/05/02 03:28:41;;;;;;;8.27;5.68;;;11.30;99.90;;;;;;5056969;28;20124;-77
2023/05/02 03:31:06;;;;;;;9.75;5.53;;;11.30;99.90;;;;;;5038537;28;20509;-77
2023/05/02 03:33:32;;;;;;;7.50;5.70;;;11.20;99.90;;;;;;5038992;28;20052;-77
2023/05/02 03:35:58;;;;;;;7.50;5.63;;;11.30;99.90;;;;;;5056255;28;20032;-77
2023/05/02 03:38:23;;;;;;;7.47;5.45;;;11.20;99.90;;;;;;5056937;28;20454;-77
2023/05/02 03:40:49;;;;;;;8.70;5.75;;;11.30;99.90;;;;;;5038561;28;20422;-77
2023/05/02 03:43:14;;;;;;;7.50;5.90;;;11.20;99.90;;;;;;5056670;28;20025;-77
2023/05/02 03:45:40;;;;;;;8.20;5.70;;;11.10;99.90;;;;;;5056609;28;20033;-77
2023/05/02 03:48:06;;;;;;;8.60;5.93;;;11.10;99.90;;;;;;5038323;28;20573;-77
2023/05/02 03:50:31;;;;;;;7.35;6.00;;;11.10;99.90;;;;;;5056411;28;20040;-77
2023/05/02 03:52:57;;;;;;;10.20;5.80;;;11.00;99.90;;;;;;5037852;28;20112;-76
2023/05/02 03:55:23;;;;;;;9.38;5.63;;;10.90;99.90;;;;;;5038191;28;20024;-77
2023/05/02 03:57:48;;;;;;;8.40;5.85;;;11.00;99.90;;;;;;5037693;28;20529;-78
2023/05/02 04:00:14;;;;;;;9.45;5.93;;;10.90;99.90;;;;;;5038442;28;20108;-78
2023/05/02 04:02:40;;;;;;;7.22;5.40;;;11.00;99.90;;;;;;5056456;28;20346;-77
2023/05/02 04:05:07;;;;;;;10.05;6.00;;;11.00;99.90;;;;;;5055485;28;20021;-77
2023/05/02 04:07:34;;;;;;;8.75;6.15;;;10.90;99.90;;;;;;5038423;28;20446;-77
2023/05/02 04:10:00;;;;;;;9.15;5.63;;;11.00;99.90;;;;;;5037812;28;20488;-77
2023/05/02 04:12:25;;;;;;;11.23;5.63;;;10.90;99.90;;;;;;5038735;28;20024;-78
2023/05/02 04:14:51;;;;;;;8.95;5.85;;;10.90;99.90;;;;;;5056056;28;20063;-78
2023/05/02 04:17:16;;;;;;;7.22;5.53;;;10.90;99.90;;;;;;5056320;28;20021;-78
2023/05/02 04:19:42;;;;;;;8.80;6.20;;;10.90;99.90;;;;;;5038354;28;20398;-77
2023/05/02 04:22:08;;;;;;;7.82;5.85;;;10.90;99.90;;;;;;5055894;28;20025;-77
2023/05/02 04:24:33;;;;;;;8.57;6.05;;;11.00;99.90;;;;;;5038520;28;20083;-78
2023/05/02 04:26:59;;;;;;;8.18;5.75;;;11.00;99.90;;;;;;5055371;28;20036;-78
2023/05/02 04:29:24;;;;;;;8.88;6.22;;;11.00;99.90;;;;;;5038111;28;20049;-77
2023/05/02 04:31:51;;;;;;;9.40;6.32;;;10.90;99.90;;;;;;5054206;28;20155;-79
2023/05/02 04:34:16;;;;;;;10.65;6.00;;;11.00;99.90;;;;;;5038434;28;20111;-77
2023/05/02 04:36:45;;;;;;;8.80;6.05;;;10.90;99.90;;;;;;5038104;28;20120;-78
2023/05/02 04:39:10;;;;;;;13.50;6.43;;;10.90;99.90;;;;;;5037235;28;20025;-77
2023/05/02 04:41:36;;;;;;;10.40;6.47;;;10.90;99.90;;;;;;5037534;28;20086;-77
2023/05/02 04:44:01;;;;;;;8.20;6.18;;;10.90;99.90;;;;;;5036850;28;20025;-77
2023/05/02 04:46:27;;;;;;;9.70;6.10;;;10.90;99.90;;;;;;5037765;28;20036;-77
2023/05/02 04:48:53;;;;;;;8.80;6.25;;;10.90;99.90;;;;;;5037378;28;20031;-78
2023/05/02 04:51:18;;;;;;;10.45;6.43;;;10.90;99.90;;;;;;5037825;28;20095;-77
2023/05/02 04:53:44;;;;;;;10.43;6.93;;;11.00;99.90;;;;;;5049911;28;20024;-77
2023/05/02 04:56:10;;;;;;;12.30;7.00;;;11.00;99.90;;;;;;5074344;28;20059;-76
2023/05/02 04:58:36;;;;;;;10.60;7.03;;;11.00;99.90;;;;;;5073266;28;20377;-75
2023/05/02 05:01:01;;;;;;;11.15;6.95;;;11.10;99.90;;;;;;5074385;28;20029;-76
2023/05/02 05:03:32;;;;;;;9.73;7.00;;;11.00;99.90;;;;;;5074938;28;20036;-75
2023/05/02 05:05:57;;;;;;;8.60;6.40;;;11.10;99.90;;;;;;5055697;28;20025;-75
2023/05/02 05:08:23;;;;;;;11.35;7.05;;;11.10;99.90;;;;;;5061423;28;20028;-75
2023/05/02 05:10:49;;;;;;;12.50;7.00;;;11.10;99.90;;;;;;5067507;28;20380;-76
2023/05/02 05:13:15;;;;;;;9.30;6.63;;;11.30;99.90;;;;;;5076234;28;20020;-75
2023/05/02 05:15:40;;;;;;;11.38;7.32;;;11.30;99.90;;;;;;5095049;28;20372;-76
2023/05/02 05:18:06;;;;;;;12.25;6.95;;;11.40;99.90;;;;;;5093350;28;20076;-77
2023/05/02 05:20:32;;;;;;;9.95;7.13;;;11.40;99.90;;;;;;5094792;28;20027;-77
2023/05/02 05:22:58;;;;;;;10.75;7.30;;;11.50;99.90;;;;;;5085849;28;20028;-77
2023/05/02 05:25:27;;;;;;;12.45;7.70;;;11.50;99.90;;;;;;5083374;28;20460;-77
2023/05/02 05:27:54;;;;;;;13.57;7.43;;;11.50;99.90;;;;;;5088165;28;20048;-78
2023/05/02 05:30:20;;;;;;;11.50;7.45;;;11.50;99.90;;;;;;5093399;28;20040;-77
2023/05/02 05:32:46;;;;;;;11.95;6.70;;;11.50;99.90;;;;;;5076667;28;20024;-77
2023/05/02 05:35:12;;;;;;;11.20;7.15;;;11.60;99.90;;;;;;5084623;28;20024;-77
2023/05/02 05:37:38;;;;;;;10.93;6.65;;;11.60;99.90;;;;;;5081435;28;20354;-77
2023/05/02 05:40:06;;;;;;;11.88;6.85;;;11.70;99.90;;;;;;5073755;28;20028;-77
2023/05/02 05:42:31;;;;;;;10.15;6.60;;;11.70;99.90;;;;;;5074185;28;20493;-76
2023/05/02 05:44:57;;;;;;;13.32;7.72;;;11.80;99.90;;;;;;5071698;28;20061;-78
2023/05/02 05:47:23;;;;;;;11.55;7.57;;;11.80;99.90;;;;;;5093174;28;20135;-76
2023/05/02 05:49:52;;;;;;;10.90;6.70;;;11.80;99.90;;;;;;5092949;28;20077;-77
2023/05/02 05:52:18;;;;;;;9.98;6.72;;;11.90;99.90;;;;;;5075916;28;20026;-77
2023/05/02 05:54:44;;;;;;;11.27;6.53;;;11.90;99.90;;;;;;5087388;28;20111;-78
2023/05/02 05:57:09;;;;;;;8.65;6.82;;;12.00;99.90;;;;;;5093426;28;20032;-76
2023/05/02 05:59:35;;;;;;;11.75;7.60;;;12.00;99.90;;;;;;5092974;28;20431;-77
2023/05/02 06:02:01;;;;;;;12.25;7.30;;;12.10;99.90;;;;;;5076126;28;20056;-77
2023/05/02 06:04:26;;;;;;;10.77;7.05;;;12.10;99.90;;;;;;5055497;28;20035;-76
2023/05/02 06:06:53;;;;;;;11.32;7.25;;;12.20;99.90;;;;;;5055075;28;20063;-78
2023/05/02 06:09:18;;;;;;;9.60;6.80;;;12.30;99.90;;;;;;5075747;28;20020;-77
2023/05/02 06:11:44;;;;;;;11.88;7.10;;;12.40;99.90;;;;;;5070308;28;20487;-78
2023/05/02 06:14:10;;;;;;;12.25;7.18;;;12.40;99.90;;;;;;5055335;28;20031;-77
2023/05/02 06:16:35;;;;;;;10.13;7.03;;;12.40;99.90;;;;;;5073887;28;20039;-78
2023/05/02 06:19:01;;;;;;;12.07;7.50;;;12.40;99.90;;;;;;5055013;28;20036;-75
2023/05/02 06:21:26;;;;;;;10.43;7.63;;;12.40;99.90;;;;;;5055851;28;20115;-75
2023/05/02 06:23:52;;;;;;;8.93;6.95;;;12.30;99.90;;;;;;5066460;28;20044;-77
2023/05/02 06:26:18;;;;;;;9.95;7.15;;;12.40;99.90;;;;;;5081294;28;20078;-76
2023/05/02 06:28:43;;;;;;;10.20;6.95;;;12.60;99.90;;;;;;5069023;28;20135;-75
2023/05/02 06:31:09;;;;;;;10.90;7.22;;;12.60;99.90;;;;;;5086999;28;20107;-76
2023/05/02 06:33:35;;;;;;;14.68;9.60;;;12.60;99.90;;;;;;5072949;28;20432;-75
2023/05/02 06:36:01;;;;;;;15.35;9.32;;;12.60;99.90;;;;;;5053621;28;20036;-76
2023/05/02 06:38:27;;;;;;;11.35;7.35;;;12.60;99.90;;;;;;5079616;28;20028;-76
2023/05/02 06:40:53;;;;;;;11.82;7.20;;;12.60;99.90;;;;;;5086080;28;20078;-79
2023/05/02 06:43:18;;;;;;;10.40;7.18;;;12.70;99.90;;;;;;5072005;28;20020;-76
2023/05/02 06:45:44;;;;;;;11.50;7.72;;;12.70;99.90;;;;;;5084325;28;20051;-76
2023/05/02 06:48:10;;;;;;;9.32;6.75;;;12.70;99.90;;;;;;5081715;28;20028;-76
2023/05/02 06:50:36;;;;;;;11.73;6.97;;;12.80;99.90;;;;;;5079690;28;20512;-76
2023/05/02 06:53:04;;;;;;;10.95;6.93;;;12.90;99.90;;;;;;5071689;28;20099;-77
2023/05/02 06:55:30;;;;;;;10.02;7.03;;;13.00;99.90;;;;;;5063276;28;20066;-76
2023/05/02 06:57:55;;;;;;;11.88;7.20;;;13.10;99.90;;;;;;5062673;28;20490;-78
2023/05/02 07:00:21;;;;;;;11.95;7.57;;;13.10;99.90;;;;;;5090992;28;20040;-76
2023/05/02 07:02:48;;;;;;;12.60;7.53;;;13.10;99.90;;;;;;5074883;28;20106;-76
2023/05/02 07:05:14;;;;;;;13.25;8.20;;;13.10;99.90;;;;;;5069746;28;20112;-77
2023/05/02 07:07:43;;;;;;;13.63;9.35;;;13.10;99.90;;;;;;5079162;28;20020;-77
2023/05/02 07:10:10;;;;;;;13.27;9.00;;;13.10;99.90;;;;;;5073617;28;20433;-77
2023/05/02 07:12:36;;;;;;;23.58;11.35;;;13.20;99.90;;;;;;5092739;28;20488;-77
2023/05/02 07:15:02;;;;;;;21.85;13.88;;;13.30;99.90;;;;;;5073614;28;20032;-77
2023/05/02 07:17:27;;;;;;;23.02;13.55;;;13.40;99.90;;;;;;5074771;28;20357;-77
2023/05/02 07:19:53;;;;;;;26.45;14.63;;;13.50;99.90;;;;;;5066506;28;20028;-78
2023/05/02 07:22:20;;;;;;;25.63;14.68;;;13.60;99.90;;;;;;5092588;28;20060;-77
2023/05/02 07:24:45;;;;;;;30.45;16.30;;;13.70;99.90;;;;;;5091882;28;20082;-77
2023/05/02 07:27:12;;;;;;;30.48;15.98;;;13.80;99.90;;;;;;5089218;28;20067;-76
2023/05/02 07:29:38;;;;;;;32.10;16.98;;;13.90;99.90;;;;;;5054093;28;20048;-77
2023/05/02 07:32:05;;;;;;;29.83;16.83;;;13.90;99.90;;;;;;5071348;28;20111;-77
2023/05/02 07:34:31;;;;;;;30.45;16.55;;;14.00;99.90;;;;;;5054418;28;20036;-77
2023/05/02 07:36:57;;;;;;;28.80;16.65;;;14.00;99.90;;;;;;5067996;28;20021;-78
2023/05/02 07:39:24;;;;;;;33.38;17.27;;;14.00;99.90;;;;;;5054616;28;20423;-77
2023/05/02 07:41:51;;;;;;;31.25;17.52;;;14.00;99.90;;;;;;5054446;28;20131;-77
2023/05/02 07:44:17;;;;;;;29.33;16.23;;;13.90;99.90;;;;;;5072014;28;20105;-77
2023/05/02 07:46:42;;;;;;;32.55;17.35;;;13.90;99.90;;;;;;5054669;28;20117;-77
2023/05/02 07:49:08;;;;;;;33.08;18.17;;;13.80;99.90;;;;;;5053773;28;20031;-77
2023/05/02 07:51:33;;;;;;;32.40;18.10;;;13.80;99.90;;;;;;5054472;28;20393;-77
2023/05/02 07:54:00;;;;;;;34.53;17.90;;;13.70;99.90;;;;;;5062641;28;20061;-78
2023/05/02 07:56:26;;;;;;;33.78;18.17;;;13.70;99.90;;;;;;5078085;28;20050;-77
2023/05/02 07:58:51;;;;;;;31.20;17.55;;;13.70;99.90;;;;;;5070669;28;20476;-77
2023/05/02 08:01:17;;;;;;;36.05;19.88;;;13.70;99.90;;;;;;5072387;28;20044;-77
2023/05/02 08:03:44;;;;;;;37.00;18.73;;;13.70;99.90;;;;;;5058892;28;20025;-77
2023/05/02 08:06:10;;;;;;;33.30;18.23;;;13.70;99.90;;;;;;5072612;28;20078;-77
2023/05/02 08:08:36;;;;;;;36.75;19.65;;;13.80;99.90;;;;;;5057700;28;20037;-77
2023/05/02 08:11:01;;;;;;;34.88;19.17;;;13.90;99.90;;;;;;5058715;28;20036;-78
2023/05/02 08:13:27;;;;;;;36.00;18.77;;;14.00;99.90;;;;;;5096209;28;20491;-78
2023/05/02 08:15:57;;;;;;;35.63;19.00;;;14.00;99.90;;;;;;5077746;28;20027;-78
2023/05/02 08:18:26;;;;;;;36.50;19.25;;;14.00;99.90;;;;;;5077865;28;20154;-77
2023/05/02 08:20:54;;;;;;;35.92;19.48;;;14.00;99.90;;;;;;5070913;28;20068;-78
2023/05/02 08:23:20;;;;;;;38.42;19.35;;;14.00;99.90;;;;;;5057049;28;20029;-77
2023/05/02 08:25:45;;;;;;;35.05;19.27;;;14.10;99.90;;;;;;5069042;28;20526;-77
2023/05/02 08:28:11;;;;;;;34.55;19.30;;;14.30;99.90;;;;;;5074074;28;20140;-78
2023/05/02 08:30:36;;;;;;;38.75;19.70;;;14.30;99.90;;;;;;5058084;28;20397;-78
2023/05/02 08:33:02;;;;;;;32.78;19.13;;;14.40;99.90;;;;;;5089395;28;20024;-80
2023/05/02 08:35:29;;;;;;;35.03;19.75;;;14.40;99.90;;;;;;5062791;28;20435;-79
2023/05/02 08:37:55;;;;;;;35.97;19.52;;;14.40;99.90;;;;;;5065781;28;20029;-79
2023/05/02 08:40:21;;;;;;;36.63;19.50;;;14.40;99.90;;;;;;5088248;28;20111;-78
2023/05/02 08:42:47;;;;;;;36.17;19.48;;;14.40;99.90;;;;;;5066798;28;20024;-76
2023/05/02 08:45:14;;;;;;;33.85;19.02;;;14.40;99.90;;;;;;5064711;28;20063;-76
2023/05/02 08:47:40;;;;;;;35.00;20.45;;;14.40;99.90;;;;;;5063044;28;20462;-77
2023/05/02 08:50:08;;;;;;;34.85;19.17;;;14.40;99.90;;;;;;5062174;28;20131;-76
2023/05/02 08:52:35;;;;;;;38.35;18.80;;;14.40;99.90;;;;;;5065097;28;20055;-77
2023/05/02 08:55:02;;;;;;;36.15;19.63;;;14.50;99.90;;;;;;5062119;28;20020;-78
2023/05/02 08:57:29;;;;;;;38.72;19.05;;;14.80;99.90;;;;;;5061223;28;20024;-76
2023/05/02 08:59:55;;;;;;;38.40;20.10;;;14.90;99.90;;;;;;5067429;28;20061;-76
2023/05/02 09:02:46;;;;;;;35.60;19.95;;;15.00;99.90;;;;;;5063081;28;20123;-75
2023/05/02 09:05:17;;;;;;;37.40;19.85;;;15.10;99.90;;;;;;5064115;28;20024;-75
2023/05/02 09:07:47;;;;;;;;;;;15.20;99.90;;;;;;5079652;28;20347;-77
2023/05/02 09:10:13;;;;;;;37.58;18.42;;;15.20;99.90;;;;;;5063475;28;19916;-76
2023/05/02 09:12:39;;;;;;;32.00;18.65;;;15.30;99.90;;;;;;5061249;28;20020;-75
2023/05/02 09:15:15;;;;;;;33.22;18.30;;;15.40;99.90;;;;;;5074044;28;20070;-74
2023/05/02 09:17:46;;;;;;;34.28;19.40;;;15.50;99.90;;;;;;5062193;28;20464;-75
2023/05/02 09:20:14;;;;;;;39.58;20.92;;;15.60;99.90;;;;;;5064999;28;20036;-76
2023/05/02 09:22:48;;;;;;;33.78;19.33;;;15.60;99.90;;;;;;5061297;28;20028;-78
2023/05/02 09:25:14;;;;;;;34.80;19.58;;;15.60;99.90;;;;;;5078073;28;20016;-78
2023/05/02 09:27:51;;;;;;;35.25;20.08;;;15.60;99.90;;;;;;5063423;28;20059;-77
2023/05/02 09:30:24;;;;;;;39.28;20.25;;;15.40;99.90;;;;;;5059464;28;20039;-77
2023/05/02 09:32:53;;;;;;;39.33;20.85;;;15.40;99.90;;;;;;5066879;28;20440;-76
2023/05/02 09:35:22;;;;;;;34.70;19.52;;;15.40;99.90;;;;;;5061704;28;20035;-77
2023/05/02 09:37:56;;;;;;;33.92;18.88;;;15.50;99.90;;;;;;5085944;28;20048;-77
2023/05/02 09:40:23;;;;;;;35.40;17.95;;;15.40;99.90;;;;;;5062820;28;20074;-77
2023/05/02 09:42:49;;;;;;;33.15;18.38;;;15.60;99.90;;;;;;5073488;28;20044;-77
2023/05/02 09:45:23;;;;;;;33.10;18.40;;;15.80;99.90;;;;;;5041995;28;20358;-77
2023/05/02 09:47:50;;;;;;;32.50;16.88;;;15.90;99.90;;;;;;5077652;28;20020;-76
2023/05/02 09:50:45;;;;;;;34.00;17.33;;;16.10;99.90;;;;;;5072606;28;20107;-77
2023/05/02 09:53:10;;;;;;;33.60;17.85;;;16.20;99.90;;;;;;5059722;28;20044;-77
2023/05/02 09:55:36;;;;;;;33.65;17.73;;;16.10;99.90;;;;;;5068844;28;20029;-76
2023/05/02 09:58:02;;;;;;;33.63;18.92;;;16.10;99.90;;;;;;5063733;28;20028;-77
2023/05/02 10:00:43;;;;;;;34.65;17.35;;;16.10;99.90;;;;;;5082395;28;20028;-77
2023/05/02 10:03:09;;;;;;;32.97;17.60;;;16.20;99.90;;;;;;5084247;28;20063;-77
2023/05/02 10:05:39;;;;;;;30.63;17.05;;;16.30;99.90;;;;;;5074468;28;20024;-76
2023/05/02 10:08:06;;;;;;;28.33;16.58;;;16.30;99.90;;;;;;5063009;28;20025;-80
2023/05/02 10:10:48;;;;;;;30.10;17.33;;;16.40;99.90;;;;;;5063813;28;20591;-80
2023/05/02 10:13:16;;;;;;;;;;;16.50;99.90;;;;;;5081533;28;20201;-76
2023/05/02 10:15:43;;;;;;;27.98;15.05;;;16.50;99.90;;;;;;5056190;28;20379;-76
2023/05/02 10:18:17;;;;;;;27.65;15.68;;;16.50;99.90;;;;;;5064359;28;20024;-77
2023/05/02 10:20:57;;;;;;;27.95;15.82;;;16.30;99.90;;;;;;5059464;28;20072;-78
2023/05/02 10:23:33;;;;;;;25.45;14.25;;;16.00;99.90;;;;;;5071618;28;20050;-77
2023/05/02 10:25:59;;;;;;;27.08;15.05;;;15.90;99.90;;;;;;5079595;28;20099;-76
2023/05/02 10:28:29;;;;;;;26.90;15.88;;;15.80;99.90;;;;;;5064054;28;20044;-77
2023/05/02 10:30:56;;;;;;;32.17;16.33;;;15.70;99.90;;;;;;5081188;28;20044;-75
2023/05/02 10:33:22;;;;;;;29.35;15.65;;;15.60;99.90;;;;;;5063404;28;20058;-76
2023/05/02 10:35:48;;;;;;;27.75;15.30;;;15.60;99.90;;;;;;5070104;28;20489;-75
2023/05/02 10:38:18;;;;;;;32.17;16.85;;;15.70;99.90;;;;;;5062835;28;20027;-75
2023/05/02 10:40:57;;;;;;;29.98;15.73;;;15.70;99.90;;;;;;5062521;28;20039;-75
2023/05/02 10:43:25;;;;;;;27.25;14.77;;;15.80;99.90;;;;;;5054493;28;20021;-76
2023/05/02 10:45:52;;;;;;;29.75;14.85;;;16.00;99.90;;;;;;5061727;28;20374;-75
2023/05/02 10:48:25;;;;;;;23.52;14.57;;;16.30;99.90;;;;;;5072947;28;20024;-76
2023/05/02 10:50:52;;;;;;;26.33;14.88;;;16.70;99.90;;;;;;5080975;28;20048;-76
2023/05/02 10:53:29;;;;;;;24.90;14.45;;;17.00;99.90;;;;;;5066483;28;20024;-76
2023/05/02 10:56:12;;;;;;;22.33;12.07;;;17.10;99.90;;;;;;5065980;28;20028;-76
2023/05/02 10:58:39;;;;;;;20.58;12.05;;;17.30;99.90;;;;;;5062667;28;20481;-74
2023/05/02 11:01:23;;;;;;;17.55;11.07;;;17.10;99.90;;;;;;5063175;28;20075;-74
2023/05/02 11:04:00;;;;;;;21.67;10.13;;;16.90;99.90;;;;;;5065937;28;20027;-75
2023/05/02 11:06:28;;;;;;;18.48;11.40;;;16.80;99.90;;;;;;5081875;28;20068;-75
2023/05/02 11:09:15;;;;;;;20.95;11.20;;;16.70;99.90;;;;;;5063678;28;20029;-80
2023/05/02 11:11:42;;;;;;;20.10;11.45;;;16.70;99.90;;;;;;5066729;28;20098;-78
2023/05/02 11:14:09;;;;;;;21.13;11.02;;;16.70;99.90;;;;;;5079892;28;20392;-79
2023/05/02 11:16:57;;;;;;;21.65;10.98;;;16.80;99.90;;;;;;5080124;28;20210;-80
2023/05/02 11:19:23;;;;;;;19.13;9.98;;;16.80;99.90;;;;;;5043920;28;20027;-79
2023/05/02 11:21:57;;;;;;;17.00;9.70;;;16.80;99.90;;;;;;5058414;28;20060;-80
2023/05/02 11:24:41;;;;;;;18.13;9.70;;;16.80;99.90;;;;;;5060317;28;20025;-80
2023/05/02 11:27:29;;;;;;;17.05;9.77;;;16.90;99.90;;;;;;5070756;28;20042;-80
2023/05/02 11:29:56;;;;;;;16.98;9.95;;;17.00;99.90;;;;;;5075051;28;20048;-79
2023/05/02 11:32:22;;;;;;;20.08;9.23;;;17.20;99.90;;;;;;5067684;28;20096;-79
2023/05/02 11:34:51;;;;;;;18.83;9.32;;;17.30;99.90;;;;;;5065508;28;20032;-79
2023/05/02 11:37:19;;;;;;;19.75;9.88;;;17.40;99.90;;;;;;5060705;28;20021;-79
2023/05/02 11:39:45;;;;;;;14.95;9.00;;;17.50;99.90;;;;;;5085021;28;20103;-79
2023/05/02 11:42:31;;;;;;;19.25;9.02;;;17.40;99.90;;;;;;5085395;28;20062;-79
2023/05/02 11:44:58;;;;;;;16.10;9.10;;;17.30;99.90;;;;;;5091540;28;20017;-79
2023/05/02 11:47:26;;;;;;;16.77;9.13;;;17.40;99.90;;;;;;5083628;28;20457;-79
2023/05/02 11:49:55;;;;;;;15.75;9.40;;;17.50;99.90;;;;;;5066083;28;20029;-79
2023/05/02 11:52:22;;;;;;;13.65;7.78;;;17.60;99.90;;;;;;5059287;28;20029;-79
2023/05/02 11:54:48;;;;;;;13.75;7.53;;;17.70;99.90;;;;;;5084633;28;20480;-79
2023/05/02 11:57:14;;;;;;;13.52;8.18;;;17.80;99.90;;;;;;5065025;28;20060;-80
2023/05/02 11:59:53;;;;;;;12.20;7.70;;;18.00;99.90;;;;;;5087716;28;20058;-78
2023/05/02 12:02:33;;;;;;;16.70;7.72;;;18.20;99.90;;;;;;5066404;28;20063;-79
2023/05/02 12:04:59;;;;;;;14.05;7.25;;;18.30;99.90;;;;;;5066574;28;20116;-78
2023/05/02 12:07:44;;;;;;;12.73;7.28;;;18.50;99.90;;;;;;5085827;28;20113;-76
2023/05/02 12:10:11;;;;;;;10.48;6.68;;;18.60;99.60;;;;;;5083735;28;20457;-77
2023/05/02 12:12:38;;;;;;;9.77;5.80;;;18.70;98.80;;;;;;5062691;28;20036;-75
2023/05/02 12:15:05;;;;;;;11.00;6.15;;;18.80;98.20;;;;;;5078511;28;20024;-76
2023/05/02 12:17:32;;;;;;;11.27;6.20;;;18.80;97.30;;;;;;5068370;28;20022;-81
2023/05/02 12:19:58;;;;;;;8.57;5.38;;;18.80;96.20;;;;;;5092568;28;20031;-80
2023/05/02 12:22:24;;;;;;;11.82;6.55;;;18.90;96.50;;;;;;5089207;28;20046;-81
2023/05/02 12:24:52;;;;;;;10.80;6.50;;;18.80;96.40;;;;;;5078530;28;20024;-81
2023/05/02 12:27:18;;;;;;;9.70;5.25;;;18.80;96.50;;;;;;5061295;28;20417;-81
2023/05/02 12:29:48;;;;;;;9.50;5.63;;;18.90;96.70;;;;;;5088541;28;20052;-81
2023/05/02 12:32:15;;;;;;;9.18;5.60;;;19.00;96.60;;;;;;5085686;28;20074;-81
2023/05/02 12:34:41;;;;;;;7.93;5.35;;;19.00;95.50;;;;;;5062870;28;20020;-81
2023/05/02 12:37:08;;;;;;;8.88;5.57;;;18.90;95.00;;;;;;5071091;28;20163;-80
2023/05/02 12:39:41;;;;;;;10.20;5.55;;;18.90;95.00;;;;;;5064123;28;20483;-80
2023/05/02 12:42:11;;;;;;;7.65;4.72;;;18.90;94.30;;;;;;5066666;28;20044;-81
2023/05/02 12:44:38;;;;;;;10.95;5.85;;;18.90;94.60;;;;;;5090547;28;20515;-80